Time;durP1;ratioP1;P1;durP2;ratioP2;P2;SDS_P1;SDS_P2;PMS_P1;PMS_P2;Temp;Humidity;BMP_temperature;BMP_pressure;BME280_temperature;BME280_humidity;BME280_pressure;Samples;Min_cycle;Max_cycle;Signal;HPM_P1;HPM_P2
2021/06/18 00:00:08;;;;;;;9.10;6.22;;;;;;;21.38;78.62;95291.28;1032361;28;20110;-80
2021/06/18 00:00:39;;;;;;;9.10;5.95;;;;;;;21.38;78.43;95288.59;1040221;28;20096;-80
2021/06/18 00:01:10;;;;;;;10.55;6.32;;;;;;;21.33;78.44;95275.03;1036326;28;20018;-80
2021/06/18 00:01:40;;;;;;;9.02;5.63;;;;;;;21.40;78.60;95297.25;1036435;28;20325;-80
2021/06/18 00:02:11;;;;;;;7.68;6.22;;;;;;;21.34;78.98;95293.69;1036395;28;20026;-79
2021/06/18 00:02:43;;;;;;;9.55;6.07;;;;;;;21.35;78.79;95300.72;1040819;28;20014;-80
2021/06/18 00:03:14;;;;;;;9.70;6.13;;;;;;;21.33;78.93;95299.34;1028482;28;20022;-79
2021/06/18 00:03:44;;;;;;;10.02;5.82;;;;;;;21.32;79.08;95297.72;1028336;28;20015;-80
2021/06/18 00:04:15;;;;;;;9.00;5.93;;;;;;;21.26;79.29;95292.28;1032455;28;20019;-79
2021/06/18 00:04:45;;;;;;;8.07;5.70;;;;;;;21.27;79.68;95299.31;1028404;28;20015;-80
2021/06/18 00:05:16;;;;;;;8.32;6.53;;;;;;;21.20;79.82;95297.94;1028493;28;20144;-79
2021/06/18 00:05:47;;;;;;;8.63;5.75;;;;;;;21.23;79.81;95302.78;1032841;28;20026;-80
2021/06/18 00:06:18;;;;;;;9.18;6.15;;;;;;;21.17;80.12;95288.44;1033114;28;20036;-80
2021/06/18 00:06:48;;;;;;;9.10;6.18;;;;;;;21.23;80.19;95302.78;1036953;28;20105;-79
2021/06/18 00:07:19;;;;;;;10.85;6.28;;;;;;;21.17;80.33;95293.03;1040534;28;20545;-79
2021/06/18 00:07:50;;;;;;;11.38;5.97;;;;;;;21.12;80.23;95283.00;1049236;28;20017;-80
2021/06/18 00:08:21;;;;;;;9.95;6.28;;;;;;;21.15;80.22;95279.00;1036711;28;20057;-79
2021/06/18 00:08:51;;;;;;;9.77;5.80;;;;;;;21.16;79.85;95292.22;1032302;28;20549;-80
2021/06/18 00:09:22;;;;;;;12.55;6.45;;;;;;;21.09;79.88;95281.66;1040537;28;20009;-78
2021/06/18 00:09:53;;;;;;;10.38;6.00;;;;;;;21.21;79.62;95292.28;1040457;28;20608;-79
2021/06/18 00:10:24;;;;;;;9.27;5.43;;;;;;;21.26;79.59;95300.38;1040503;28;20137;-79
2021/06/18 00:10:55;;;;;;;11.52;5.75;;;;;;;21.16;79.88;95294.09;1032411;28;20026;-80
2021/06/18 00:11:25;;;;;;;13.85;6.10;;;;;;;21.05;80.27;95294.03;1036329;28;20086;-78
2021/06/18 00:11:56;;;;;;;12.45;6.35;;;;;;;21.08;80.44;95298.91;1036333;28;20037;-80
2021/06/18 00:12:26;;;;;;;9.55;5.88;;;;;;;20.98;80.45;95279.13;1036350;28;20061;-79
2021/06/18 00:12:57;;;;;;;8.45;5.65;;;;;;;20.95;80.72;95290.44;1036370;28;20132;-80
2021/06/18 00:13:28;;;;;;;10.32;5.90;;;;;;;20.82;80.91;95273.59;1036355;28;20375;-80
2021/06/18 00:13:58;;;;;;;10.73;6.22;;;;;;;20.86;80.76;95276.59;1032289;28;20224;-79
2021/06/18 00:14:29;;;;;;;9.80;5.88;;;;;;;20.94;80.38;95286.13;1024198;28;20118;-80
2021/06/18 00:15:00;;;;;;;9.38;5.80;;;;;;;20.99;80.25;95296.97;1032297;28;20022;-80
2021/06/18 00:15:31;;;;;;;8.57;5.68;;;;;;;20.91;80.10;95274.75;1036231;28;20022;-79
2021/06/18 00:16:01;;;;;;;8.57;5.80;;;;;;;20.99;79.59;95292.38;1036369;28;20096;-80
2021/06/18 00:16:32;;;;;;;7.53;5.47;;;;;;;20.97;79.32;95285.59;1032021;28;20026;-79
2021/06/18 00:17:03;;;;;;;8.32;5.47;;;;;;;21.01;79.00;95287.53;1031973;28;20018;-78
2021/06/18 00:17:34;;;;;;;10.50;5.88;;;;;;;20.93;79.60;95292.59;1032310;28;20030;-79
2021/06/18 00:18:05;;;;;;;9.38;5.32;;;;;;;20.89;79.66;95281.50;1036043;28;20025;-78
2021/06/18 00:18:36;;;;;;;12.38;5.65;;;;;;;20.88;80.24;95296.88;1028206;28;20035;-80
2021/06/18 00:19:07;;;;;;;7.38;5.35;;;;;;;20.88;80.45;95296.03;1036117;28;20488;-80
2021/06/18 00:19:38;;;;;;;10.25;5.45;;;;;;;20.84;80.76;95290.34;1036180;28;20053;-80
2021/06/18 00:20:09;;;;;;;9.15;5.43;;;;;;;20.84;80.58;95284.13;1036311;28;20049;-79
2021/06/18 00:20:40;;;;;;;8.07;5.80;;;;;;;20.85;80.32;95283.09;1036533;28;20026;-79
2021/06/18 00:21:10;;;;;;;14.82;5.90;;;;;;;20.89;80.66;95282.28;1036340;28;20029;-79
2021/06/18 00:21:41;;;;;;;10.73;5.70;;;;;;;20.80;81.18;95283.03;1032289;28;20040;-79
2021/06/18 00:22:12;;;;;;;10.52;5.57;;;;;;;20.77;81.47;95291.63;1040685;28;20141;-79
2021/06/18 00:22:42;;;;;;;12.00;5.88;;;;;;;20.79;81.50;95293.00;1036133;28;20112;-79
2021/06/18 00:23:13;;;;;;;7.72;5.57;;;;;;;20.85;81.08;95286.59;1036225;28;20042;-80
2021/06/18 00:23:44;;;;;;;9.45;5.95;;;;;;;20.77;81.05;95281.66;1036115;28;20181;-79
2021/06/18 00:24:14;;;;;;;8.63;5.55;;;;;;;20.73;81.33;95282.44;1032342;28;20109;-80
2021/06/18 00:24:45;;;;;;;8.75;5.95;;;;;;;20.63;81.65;95273.16;1036075;28;20033;-80
2021/06/18 00:25:15;;;;;;;7.18;5.57;;;;;;;20.61;81.51;95266.38;1036346;28;20088;-81
2021/06/18 00:25:46;;;;;;;8.98;5.82;;;;;;;20.71;81.48;95277.28;1032281;28;20019;-79
2021/06/18 00:26:17;;;;;;;11.43;6.20;;;;;;;20.73;81.35;95275.16;1028150;28;20023;-79
2021/06/18 00:26:48;;;;;;;8.98;6.05;;;;;;;20.83;81.48;95283.34;1032221;28;20401;-79
2021/06/18 00:27:18;;;;;;;10.15;5.72;;;;;;;20.88;81.48;95285.25;1032176;28;20022;-80
2021/06/18 00:27:49;;;;;;;8.35;5.35;;;;;;;20.81;81.87;95277.38;1036298;28;20065;-80
2021/06/18 00:28:20;;;;;;;9.85;5.63;;;;;;;20.89;81.72;95284.19;1040384;28;20016;-80
2021/06/18 00:28:51;;;;;;;8.85;6.00;;;;;;;20.86;81.96;95293.59;1036050;28;20223;-80
2021/06/18 00:29:21;;;;;;;8.13;5.60;;;;;;;20.78;82.32;95279.75;1044263;28;20017;-79
2021/06/18 00:29:52;;;;;;;10.07;5.88;;;;;;;20.71;82.12;95280.81;1044385;28;20534;-81
2021/06/18 00:30:23;;;;;;;10.55;5.70;;;;;;;20.78;82.11;95291.38;1036207;28;20100;-81
2021/06/18 00:30:54;;;;;;;12.48;5.93;;;;;;;20.75;81.82;95280.28;1036160;28;20037;-78
2021/06/18 00:31:24;;;;;;;8.40;5.57;;;;;;;20.69;81.90;95276.72;1040307;28;20017;-79
2021/06/18 00:31:55;;;;;;;10.65;5.20;;;;;;;20.70;81.92;95279.16;1036295;28;20105;-79
2021/06/18 00:32:25;;;;;;;10.90;5.95;;;;;;;20.70;82.03;95286.44;1036146;28;20057;-79
2021/06/18 00:32:56;;;;;;;9.85;5.50;;;;;;;20.61;82.23;95277.16;1032367;28;20460;-80
2021/06/18 00:33:29;;;;;;;9.52;6.15;;;;;;;20.62;82.35;95276.13;1032091;28;20114;-79
2021/06/18 00:34:00;;;;;;;9.50;5.30;;;;;;;20.66;82.25;95283.44;1032105;28;20412;-78
2021/06/18 00:34:30;;;;;;;10.02;5.40;;;;;;;20.59;82.33;95271.22;1036186;28;20120;-79
2021/06/18 00:35:01;;;;;;;11.55;6.15;;;;;;;20.62;82.29;95270.72;1036194;28;20061;-80
2021/06/18 00:35:32;;;;;;;10.75;5.55;;;;;;;20.60;82.34;95267.44;1036304;28;20468;-79
2021/06/18 00:36:03;;;;;;;10.63;6.03;;;;;;;20.60;82.68;95272.84;1024087;28;20043;-79
2021/06/18 00:36:34;;;;;;;8.82;6.05;;;;;;;20.48;82.39;95249.53;1032180;28;20511;-80
2021/06/18 00:37:04;;;;;;;10.00;6.10;;;;;;;20.67;82.16;95270.75;1032259;28;20109;-79
2021/06/18 00:37:35;;;;;;;6.63;5.00;;;;;;;20.67;81.94;95263.50;1028398;28;20027;-80
2021/06/18 00:38:05;;;;;;;11.10;6.05;;;;;;;20.78;81.91;95280.59;1036185;28;20493;-79
2021/06/18 00:38:36;;;;;;;8.32;5.53;;;;;;;20.75;81.97;95281.09;1032400;28;20026;-79
2021/06/18 00:39:07;;;;;;;9.77;5.60;;;;;;;20.68;81.96;95270.50;1032079;28;20141;-78
2021/06/18 00:39:37;;;;;;;9.48;5.80;;;;;;;20.64;82.15;95257.78;1032113;28;20109;-80
2021/06/18 00:40:08;;;;;;;10.05;6.25;;;;;;;20.83;81.99;95275.25;1036084;28;20108;-79
2021/06/18 00:40:40;;;;;;;10.50;6.00;;;;;;;20.70;81.93;95264.84;1040475;28;20025;-81
2021/06/18 00:41:10;;;;;;;11.02;6.60;;;;;;;20.83;82.46;95279.81;1036377;28;20558;-80
2021/06/18 00:41:41;;;;;;;12.30;5.82;;;;;;;20.79;82.47;95279.50;1029170;28;20061;-79
2021/06/18 00:42:11;;;;;;;11.23;6.10;;;;;;;20.79;82.83;95281.41;1033745;28;20094;-81
2021/06/18 00:42:42;;;;;;;11.13;6.75;;;;;;;20.66;82.79;95261.88;1036828;28;20054;-79
2021/06/18 00:43:13;;;;;;;11.65;6.47;;;;;;;20.78;83.05;95279.75;1032174;28;20536;-80
2021/06/18 00:43:43;;;;;;;13.73;6.82;;;;;;;20.72;82.90;95273.50;1032204;28;20015;-79
2021/06/18 00:44:14;;;;;;;8.43;5.93;;;;;;;20.69;82.99;95269.44;1036066;28;20140;-79
2021/06/18 00:44:44;;;;;;;14.93;6.35;;;;;;;20.75;83.08;95275.69;1036196;28;20021;-79
2021/06/18 00:45:15;;;;;;;11.00;6.35;;;;;;;20.62;83.32;95260.75;1036145;28;20125;-77
2021/06/18 00:45:46;;;;;;;11.57;6.28;;;;;;;20.74;83.46;95279.47;1032098;28;20037;-81
2021/06/18 00:46:16;;;;;;;14.35;6.05;;;;;;;20.68;83.50;95275.91;1044280;28;20474;-79
2021/06/18 00:46:47;;;;;;;8.55;5.95;;;;;;;20.76;83.49;95290.00;1036162;28;20076;-80
2021/06/18 00:47:21;;;;;;;7.85;5.85;;;;;;;20.75;83.60;95285.69;1040245;28;20455;-81
2021/06/18 00:47:59;;;;;;;10.90;6.35;;;;;;;20.68;83.59;95275.91;1040124;28;20043;-78
2021/06/18 00:48:29;;;;;;;9.57;5.75;;;;;;;20.74;83.52;95276.75;1032007;28;20535;-79
2021/06/18 00:49:00;;;;;;;10.07;5.88;;;;;;;20.74;83.68;95287.56;1033631;28;20054;-80
2021/06/18 00:49:31;;;;;;;8.95;6.20;;;;;;;20.61;83.32;95260.97;1036105;28;20616;-79
2021/06/18 00:50:01;;;;;;;10.82;6.47;;;;;;;20.74;83.58;95274.06;1036168;28;20076;-79
2021/06/18 00:50:32;;;;;;;10.07;6.13;;;;;;;20.70;83.67;95270.25;1036199;28;20503;-78
2021/06/18 00:51:03;;;;;;;7.75;5.93;;;;;;;20.64;83.95;95268.56;1040103;28;20106;-79
2021/06/18 00:51:33;;;;;;;11.38;6.10;;;;;;;20.66;83.96;95266.47;1036154;28;20029;-78
2021/06/18 00:52:04;;;;;;;9.13;5.95;;;;;;;20.60;84.00;95260.16;1032322;28;20022;-80
2021/06/18 00:52:35;;;;;;;8.75;5.75;;;;;;;20.68;84.21;95275.91;1036250;28;20030;-77
2021/06/18 00:53:06;;;;;;;15.10;5.97;;;;;;;20.69;84.09;95282.13;1040252;28;20057;-79
2021/06/18 00:53:37;;;;;;;9.13;6.07;;;;;;;20.57;84.47;95270.63;1044725;28;20044;-79
2021/06/18 00:54:08;;;;;;;8.48;5.72;;;;;;;20.50;84.75;95277.06;1040365;28;20567;-77
2021/06/18 00:54:40;;;;;;;10.20;6.10;;;;;;;20.49;84.98;95269.22;1032175;28;20392;-78
2021/06/18 00:55:11;;;;;;;7.65;5.55;;;;;;;20.51;85.11;95284.06;1028045;28;20058;-78
2021/06/18 00:55:41;;;;;;;10.60;6.00;;;;;;;20.46;85.19;95267.84;1036216;28;20018;-77
2021/06/18 00:56:12;;;;;;;12.02;5.75;;;;;;;20.47;85.18;95272.19;1040170;28;20120;-77
2021/06/18 00:56:43;;;;;;;7.40;5.03;;;;;;;20.51;85.32;95281.38;1027957;28;20099;-78
2021/06/18 00:57:14;;;;;;;9.73;5.85;;;;;;;20.51;85.46;95278.69;1032032;28;20562;-79
2021/06/18 00:57:44;;;;;;;8.27;6.30;;;;;;;20.47;85.44;95277.56;1036052;28;20100;-79
2021/06/18 00:58:15;;;;;;;9.02;5.68;;;;;;;20.46;85.27;95272.44;1035849;28;20108;-78
2021/06/18 00:58:45;;;;;;;8.73;5.68;;;;;;;20.50;85.31;95279.78;1031898;28;20405;-77
2021/06/18 00:59:16;;;;;;;9.20;5.53;;;;;;;20.47;85.55;95282.16;1024024;29;20031;-77
2021/06/18 00:59:47;;;;;;;7.68;5.28;;;;;;;20.46;85.47;95272.44;1032330;28;20105;-78
2021/06/18 01:00:18;;;;;;;7.80;5.53;;;;;;;20.47;85.68;95284.88;1032622;28;20068;-79
2021/06/18 01:00:49;;;;;;;8.20;5.72;;;;;;;20.39;85.63;95264.53;1028515;28;20014;-78
2021/06/18 01:01:19;;;;;;;7.82;5.65;;;;;;;20.46;85.75;95273.25;1036901;28;20029;-78
2021/06/18 01:01:50;;;;;;;6.50;5.80;;;;;;;20.29;85.77;95248.25;1028879;28;20101;-78
2021/06/18 01:02:21;;;;;;;10.25;6.13;;;;;;;20.34;85.83;95259.94;1032590;28;20106;-79
2021/06/18 01:02:52;;;;;;;9.27;5.68;;;;;;;20.38;86.01;95262.09;1024455;29;20030;-79
2021/06/18 01:03:22;;;;;;;9.57;6.05;;;;;;;20.40;86.59;95273.47;1032771;28;20117;-79
2021/06/18 01:03:53;;;;;;;11.10;6.32;;;;;;;20.43;86.67;95272.94;1028772;28;20117;-79
2021/06/18 01:04:25;;;;;;;11.98;6.93;;;;;;;20.43;86.76;95272.94;1033031;28;20018;-79
2021/06/18 01:04:56;;;;;;;7.32;5.78;;;;;;;20.29;86.79;95253.66;1036814;28;20392;-79
2021/06/18 01:05:26;;;;;;;9.27;5.97;;;;;;;20.33;87.03;95257.47;1041040;28;20025;-78
2021/06/18 01:05:57;;;;;;;11.80;6.50;;;;;;;20.35;87.22;95269.63;1032989;28;20024;-79
2021/06/18 01:06:30;;;;;;;8.68;6.15;;;;;;;20.21;87.36;95248.72;1036823;28;20145;-79
2021/06/18 01:07:05;;;;;;;11.15;6.28;;;;;;;20.27;87.76;95269.28;1032796;28;20022;-78
2021/06/18 01:07:52;;;;;;;12.73;6.07;;;;;;;20.14;87.80;95260.53;1032978;28;20050;-79
2021/06/18 01:08:24;;;;;;;9.25;6.20;;;;;;;20.07;88.04;95246.44;1032769;28;20503;-78
2021/06/18 01:08:56;;;;;;;8.50;6.35;;;;;;;20.14;88.32;95267.81;1028730;28;20026;-78
2021/06/18 01:09:27;;;;;;;9.60;5.88;;;;;;;20.20;88.38;95274.06;1036970;28;20029;-79
2021/06/18 01:10:10;;;;;;;9.00;6.07;;;;;;;20.23;88.02;95279.75;1037322;28;20486;-78
2021/06/18 01:11:11;;;;;;;9.35;6.32;;;;;;;20.11;87.74;95263.72;1036813;28;20514;-78
2021/06/18 01:11:58;;;;;;;7.68;6.13;;;;;;;20.19;87.25;95277.84;1028038;28;20027;-78
2021/06/18 01:12:30;;;;;;;8.43;5.78;;;;;;;20.11;86.80;95265.59;1037449;28;20030;-78
2021/06/18 01:13:27;;;;;;;9.48;6.22;;;;;;;20.23;86.25;95276.25;1037200;28;20483;-79
2021/06/18 01:14:27;;;;;;;11.30;6.32;;;;;;;20.18;85.91;95276.19;1033155;28;20022;-78
2021/06/18 01:15:07;;;;;;;10.52;6.55;;;;;;;20.08;86.18;95277.72;1041050;28;20538;-80
2021/06/18 01:15:44;;;;;;;12.70;6.13;;;;;;;20.07;86.14;95273.38;1043296;28;20499;-79
2021/06/18 01:16:33;;;;;;;8.63;5.35;;;;;;;20.12;85.85;95276.13;1040681;28;20049;-78
2021/06/18 01:17:05;;;;;;;8.55;5.75;;;;;;;20.05;86.36;95270.13;1036901;28;20029;-79
2021/06/18 01:17:48;;;;;;;7.10;5.13;;;;;;;19.93;86.52;95262.19;1037008;28;20025;-79
2021/06/18 01:18:23;;;;;;;9.57;5.60;;;;;;;19.90;86.46;95264.56;1040979;28;20068;-80
2021/06/18 01:18:58;;;;;;;9.25;5.45;;;;;;;19.97;86.24;95265.19;1032722;28;20589;-80
2021/06/18 01:19:28;;;;;;;7.35;5.25;;;;;;;20.04;86.15;95276.56;1032661;28;20033;-80
2021/06/18 01:20:10;;;;;;;9.05;5.85;;;;;;;20.05;86.07;95272.84;1032669;28;20042;-80
2021/06/18 01:20:55;;;;;;;7.88;5.60;;;;;;;20.10;85.98;95266.69;1037156;28;20489;-78
2021/06/18 01:21:39;;;;;;;7.20;5.82;;;;;;;20.06;85.63;95263.66;1036027;28;20125;-78
2021/06/18 01:22:13;;;;;;;9.57;5.88;;;;;;;20.12;85.63;95276.13;1037033;28;20022;-79
2021/06/18 01:22:45;;;;;;;12.07;5.43;;;;;;;20.16;85.65;95274.56;1041301;28;20031;-79
2021/06/18 01:23:28;;;;;;;9.57;5.20;;;;;;;20.23;85.43;95274.38;1033221;28;20030;-79
2021/06/18 01:24:13;;;;;;;8.13;5.47;;;;;;;20.22;85.59;95271.91;1028749;28;20031;-79
2021/06/18 01:24:46;;;;;;;8.27;5.25;;;;;;;20.22;85.63;95269.22;1033023;28;20022;-80
2021/06/18 01:25:36;;;;;;;7.68;5.72;;;;;;;20.12;86.96;95268.06;1036707;28;20186;-79
2021/06/18 01:26:16;;;;;;;8.15;5.57;;;;;;;20.05;87.09;95253.16;1028628;28;20031;-80
2021/06/18 01:26:53;;;;;;;8.98;5.40;;;;;;;20.16;87.14;95265.66;1036980;28;20022;-79
2021/06/18 01:27:32;;;;;;;6.95;5.38;;;;;;;20.05;87.57;95262.03;1036518;28;20065;-77
2021/06/18 01:28:24;;;;;;;6.82;5.60;;;;;;;19.95;87.90;95267.31;1040034;28;20487;-78
2021/06/18 01:28:55;;;;;;;6.70;5.03;;;;;;;19.92;88.59;95265.13;1033834;28;20030;-79
2021/06/18 01:29:32;;;;;;;7.40;5.03;;;;;;;19.86;87.97;95263.44;1036716;28;20025;-79
2021/06/18 01:30:15;;;;;;;8.27;5.47;;;;;;;19.87;88.01;95260.50;1032554;28;20035;-78
2021/06/18 01:30:46;;;;;;;8.05;5.65;;;;;;;19.90;87.79;95264.56;1036870;28;20029;-79
2021/06/18 01:31:19;;;;;;;8.27;5.68;;;;;;;19.94;87.54;95262.97;1028482;28;20113;-78
2021/06/18 01:31:49;;;;;;;7.57;5.30;;;;;;;19.98;87.25;95256.03;1036630;28;20032;-80
2021/06/18 01:32:29;;;;;;;8.35;5.45;;;;;;;19.99;87.32;95260.34;1040451;28;20036;-79
2021/06/18 01:33:03;;;;;;;6.65;5.07;;;;;;;20.04;87.03;95259.59;1032572;28;20051;-78
2021/06/18 01:33:35;;;;;;;8.07;5.90;;;;;;;20.05;86.59;95248.56;1036411;28;20034;-78
2021/06/18 01:34:13;;;;;;;10.80;5.85;;;;;;;20.12;85.88;95254.56;1040571;28;20029;-78
2021/06/18 01:34:43;;;;;;;10.50;5.72;;;;;;;20.15;85.15;95261.31;1036529;28;20049;-80
2021/06/18 01:35:17;;;;;;;11.23;6.20;;;;;;;20.04;85.44;95252.31;1032471;28;20026;-78
2021/06/18 01:35:52;;;;;;;7.30;5.50;;;;;;;20.09;85.39;95255.06;1036610;28;20014;-79
2021/06/18 01:36:23;;;;;;;10.98;5.28;;;;;;;20.13;84.74;95258.91;1036374;28;20022;-78
2021/06/18 01:36:57;;;;;;;8.65;5.40;;;;;;;20.13;84.62;95256.22;1028253;28;20027;-79
2021/06/18 01:37:29;;;;;;;9.25;5.55;;;;;;;20.15;84.51;95259.47;1032505;28;20025;-78
2021/06/18 01:38:00;;;;;;;9.75;6.80;;;;;;;20.04;84.55;95238.84;1036648;28;20018;-79
2021/06/18 01:38:32;;;;;;;10.30;6.47;;;;;;;20.11;84.45;95252.94;1032381;28;20014;-77
2021/06/18 01:39:02;;;;;;;9.27;6.07;;;;;;;20.20;84.11;95252.47;1036495;28;20026;-80
2021/06/18 01:39:33;;;;;;;11.82;6.40;;;;;;;20.19;84.28;95256.28;1028452;28;20023;-80
2021/06/18 01:40:09;;;;;;;8.82;6.25;;;;;;;20.08;84.43;95239.97;1040588;28;20022;-78
2021/06/18 01:40:40;;;;;;;8.57;5.45;;;;;;;20.19;84.77;95253.56;1045598;28;20066;-79
2021/06/18 01:41:13;;;;;;;11.32;6.60;;;;;;;20.13;84.89;95248.13;1033226;28;20053;-79
2021/06/18 01:41:44;;;;;;;8.18;5.57;;;;;;;20.20;84.87;95255.97;1037037;28;20468;-80
2021/06/18 01:42:15;;;;;;;8.15;5.38;;;;;;;20.15;84.88;95245.16;1025094;28;20146;-80
2021/06/18 01:42:45;;;;;;;8.98;6.53;;;;;;;20.12;85.14;95246.47;1037287;28;20030;-78
2021/06/18 01:43:17;;;;;;;8.82;5.63;;;;;;;20.16;85.32;95252.19;1037251;28;20025;-80
2021/06/18 01:43:48;;;;;;;9.40;5.78;;;;;;;20.09;85.81;95243.47;1029227;28;20046;-80
2021/06/18 01:44:19;;;;;;;7.22;5.32;;;;;;;20.12;86.07;95254.56;1033458;28;20026;-80
2021/06/18 01:44:49;;;;;;;9.35;5.55;;;;;;;20.11;86.06;95252.13;1036906;28;20022;-81
2021/06/18 01:45:21;;;;;;;7.03;5.75;;;;;;;20.15;85.62;95251.38;1036865;28;20032;-80
2021/06/18 01:45:51;;;;;;;9.00;6.20;;;;;;;20.03;85.75;95236.38;1032932;28;20503;-80
2021/06/18 01:46:24;;;;;;;6.90;5.38;;;;;;;20.14;85.57;95255.13;1032955;28;20120;-78
2021/06/18 01:46:54;;;;;;;7.53;5.53;;;;;;;20.03;85.29;95239.91;1032768;28;20026;-78
2021/06/18 01:47:25;;;;;;;9.60;5.47;;;;;;;20.02;85.38;95235.59;1028825;28;20026;-78
2021/06/18 01:47:56;;;;;;;10.18;5.65;;;;;;;19.92;85.26;95228.22;1028938;28;20545;-79
2021/06/18 01:48:26;;;;;;;11.75;6.05;;;;;;;19.97;85.70;95249.81;1040769;28;20014;-78
2021/06/18 01:49:01;;;;;;;12.65;6.07;;;;;;;19.89;86.06;95247.59;1028567;28;20518;-80
2021/06/18 01:49:33;;;;;;;13.45;6.25;;;;;;;19.90;86.17;95245.69;1036967;28;20013;-78
2021/06/18 01:50:05;;;;;;;12.15;5.78;;;;;;;19.96;85.86;95244.69;1040730;28;20025;-78
2021/06/18 01:50:36;;;;;;;9.32;5.53;;;;;;;19.97;85.94;95254.41;1036468;28;20104;-77
2021/06/18 01:51:06;;;;;;;12.23;5.55;;;;;;;19.88;85.78;95242.44;1036552;28;20018;-78
2021/06/18 01:51:37;;;;;;;13.70;5.90;;;;;;;19.90;86.01;95243.00;1028757;28;20415;-80
2021/06/18 01:52:08;;;;;;;8.32;6.03;;;;;;;19.89;86.02;95247.59;1032702;28;20337;-80
2021/06/18 01:52:40;;;;;;;9.65;5.50;;;;;;;19.81;86.52;95244.53;1036549;28;20014;-78
2021/06/18 01:53:13;;;;;;;8.82;5.05;;;;;;;19.81;86.46;95239.94;1028276;28;20026;-81
2021/06/18 01:53:44;;;;;;;11.32;5.10;;;;;;;19.81;86.69;95249.91;1036652;28;20117;-78
2021/06/18 01:54:14;;;;;;;7.15;5.57;;;;;;;19.73;86.53;95240.34;1044647;28;20421;-79
2021/06/18 01:54:45;;;;;;;10.23;6.32;;;;;;;19.77;86.69;95246.91;1032788;28;20053;-78
2021/06/18 01:55:17;;;;;;;8.05;5.72;;;;;;;19.72;86.67;95244.91;1036711;28;20036;-77
2021/06/18 01:55:48;;;;;;;11.07;5.22;;;;;;;19.70;86.66;95238.97;1036834;28;20472;-80
2021/06/18 01:56:19;;;;;;;8.20;5.43;;;;;;;19.61;86.49;95235.09;1028702;28;20050;-79
2021/06/18 01:56:50;;;;;;;9.15;5.65;;;;;;;19.59;86.46;95232.66;1036882;28;20014;-78
2021/06/18 01:57:21;;;;;;;9.23;5.10;;;;;;;19.59;86.60;95247.97;1032557;28;20045;-80
2021/06/18 01:57:57;;;;;;;9.13;5.88;;;;;;;19.59;86.48;95231.81;1028611;28;20388;-80
2021/06/18 01:58:29;;;;;;;7.50;5.05;;;;;;;19.60;86.14;95236.16;1036600;28;20022;-78
2021/06/18 01:59:00;;;;;;;5.70;4.88;;;;;;;19.58;86.00;95239.09;1032463;28;20030;-79
2021/06/18 01:59:34;;;;;;;6.95;4.95;;;;;;;19.59;85.58;95226.44;1028451;28;20022;-80
2021/06/18 02:00:06;;;;;;;9.70;5.63;;;;;;;19.59;85.50;95231.81;1032616;28;20477;-79
2021/06/18 02:00:40;;;;;;;7.63;4.85;;;;;;;19.63;85.58;95232.97;1044638;28;20024;-79
2021/06/18 02:01:12;;;;;;;8.95;5.50;;;;;;;19.70;85.11;95238.97;1036541;28;20029;-77
2021/06/18 02:01:44;;;;;;;7.97;5.13;;;;;;;19.65;84.91;95224.63;1032753;28;20030;-80
2021/06/18 02:02:15;;;;;;;9.52;5.03;;;;;;;19.80;84.43;95242.88;1044931;28;20028;-78
2021/06/18 02:02:45;;;;;;;8.18;4.78;;;;;;;19.73;84.13;95233.09;1032436;28;20044;-78
2021/06/18 02:03:22;;;;;;;7.47;4.60;;;;;;;19.69;84.21;95214.97;1032554;28;20548;-78
2021/06/18 02:03:52;;;;;;;8.25;4.78;;;;;;;19.84;84.15;95246.69;1032386;28;20022;-78
2021/06/18 02:04:23;;;;;;;8.43;5.10;;;;;;;19.78;83.88;95235.88;1040836;28;20049;-77
2021/06/18 02:04:54;;;;;;;8.13;4.78;;;;;;;19.87;83.73;95243.50;1040628;28;20458;-78
2021/06/18 02:05:25;;;;;;;7.07;4.28;;;;;;;19.86;83.85;95242.69;1032446;28;20026;-78
2021/06/18 02:05:58;;;;;;;7.93;5.18;;;;;;;19.85;84.18;95241.06;1044555;28;20029;-78
2021/06/18 02:06:28;;;;;;;9.18;5.35;;;;;;;19.72;85.77;95247.63;1040718;28;20100;-79
2021/06/18 02:06:59;;;;;;;6.45;5.32;;;;;;;19.44;87.81;95245.91;1032686;28;20022;-78
2021/06/18 02:07:29;;;;;;;8.88;4.82;;;;;;;19.41;88.23;95246.41;1036642;28;20388;-78
2021/06/18 02:08:00;;;;;;;7.25;4.60;;;;;;;19.34;88.75;95229.63;1028247;28;20102;-78
2021/06/18 02:08:31;;;;;;;6.88;5.15;;;;;;;19.50;87.95;95244.09;1032593;28;20543;-78
2021/06/18 02:09:01;;;;;;;6.97;4.53;;;;;;;19.39;87.74;95222.41;1036765;28;20080;-78
2021/06/18 02:09:33;;;;;;;8.80;5.22;;;;;;;19.58;87.38;95246.38;1040634;28;20076;-78
2021/06/18 02:10:06;;;;;;;11.65;4.82;;;;;;;19.46;87.78;95237.59;1036866;28;20145;-79
2021/06/18 02:10:37;;;;;;;7.15;5.03;;;;;;;19.51;87.41;95245.75;1032666;28;20026;-77
2021/06/18 02:11:08;;;;;;;7.15;5.10;;;;;;;19.48;87.49;95243.53;1032529;28;20579;-80
2021/06/18 02:11:39;;;;;;;7.20;5.53;;;;;;;19.17;87.84;95200.03;1036143;28;20022;-80
2021/06/18 02:12:10;;;;;;;7.30;5.32;;;;;;;19.33;88.28;95241.44;1032102;28;20026;-78
2021/06/18 02:12:41;;;;;;;6.60;5.18;;;;;;;19.36;88.56;95240.97;1032371;28;20113;-80
2021/06/18 02:13:13;;;;;;;8.05;5.00;;;;;;;19.21;89.05;95239.69;1036486;28;20100;-80
2021/06/18 02:13:44;;;;;;;6.70;5.22;;;;;;;19.32;88.87;95242.53;1036342;28;20495;-80
2021/06/18 02:14:16;;;;;;;8.10;4.80;;;;;;;19.25;88.61;95215.78;1032603;28;20121;-79
2021/06/18 02:14:48;;;;;;;7.93;4.85;;;;;;;19.39;88.41;95243.97;1032732;28;20057;-79
2021/06/18 02:15:19;;;;;;;7.78;5.05;;;;;;;19.46;88.11;95248.38;1036507;28;20530;-78
2021/06/18 02:15:49;;;;;;;7.00;5.03;;;;;;;19.43;87.74;95238.09;1036228;28;20037;-79
2021/06/18 02:16:20;;;;;;;6.40;4.65;;;;;;;19.28;87.83;95214.44;1032456;28;20030;-79
2021/06/18 02:16:52;;;;;;;8.07;5.18;;;;;;;19.36;87.88;95239.06;1036650;28;20085;-78
2021/06/18 02:17:23;;;;;;;6.20;5.03;;;;;;;19.47;88.02;95241.91;1032717;28;20026;-78
2021/06/18 02:17:54;;;;;;;8.60;5.10;;;;;;;19.44;87.86;95239.69;1032458;28;20053;-78
2021/06/18 02:18:26;;;;;;;8.10;5.35;;;;;;;19.51;87.61;95251.94;1040263;28;20045;-77
2021/06/18 02:18:57;;;;;;;8.43;4.90;;;;;;;19.48;87.66;95241.66;1036698;28;20026;-78
2021/06/18 02:19:28;;;;;;;7.20;4.90;;;;;;;19.53;87.60;95254.38;1028339;28;20417;-79
2021/06/18 02:19:58;;;;;;;7.07;4.90;;;;;;;19.50;87.51;95253.00;1036478;28;20104;-78
2021/06/18 02:20:29;;;;;;;7.55;4.78;;;;;;;19.56;87.01;95260.09;1036358;28;20369;-78
2021/06/18 02:21:00;;;;;;;6.97;4.88;;;;;;;19.44;87.60;95245.09;1036557;28;20606;-79
2021/06/18 02:21:31;;;;;;;6.13;4.63;;;;;;;19.46;87.59;95248.38;1036306;28;20036;-78
2021/06/18 02:22:04;;;;;;;7.80;5.43;;;;;;;19.48;87.81;95259.69;1032244;28;20121;-79
2021/06/18 02:22:35;;;;;;;6.30;4.72;;;;;;;19.48;87.93;95252.44;1036357;28;20050;-79
2021/06/18 02:23:07;;;;;;;8.15;5.00;;;;;;;19.53;87.57;95252.50;1040706;28;20486;-78
2021/06/18 02:23:37;;;;;;;7.25;5.00;;;;;;;19.63;87.44;95265.28;1036527;28;20037;-78
2021/06/18 02:24:08;;;;;;;8.50;5.00;;;;;;;19.48;87.51;95246.25;1028528;28;20027;-78
2021/06/18 02:24:39;;;;;;;7.53;4.72;;;;;;;19.56;86.51;95254.69;1036392;28;20084;-78
2021/06/18 02:25:10;;;;;;;10.98;5.60;;;;;;;19.57;85.69;95255.50;1036504;28;20024;-78
2021/06/18 02:25:40;;;;;;;11.75;5.53;;;;;;;19.46;85.95;95248.38;1036302;28;20127;-78
2021/06/18 02:26:11;;;;;;;7.75;5.18;;;;;;;19.51;85.68;95261.91;1040475;28;20075;-79
2021/06/18 02:26:41;;;;;;;8.40;5.43;;;;;;;19.54;85.60;95256.00;1040631;28;20116;-80
2021/06/18 02:27:13;;;;;;;8.70;5.20;;;;;;;19.53;85.37;95251.69;1036364;28;20037;-80
2021/06/18 02:27:44;;;;;;;8.73;4.70;;;;;;;19.62;85.06;95252.88;1032446;28;20026;-77
2021/06/18 02:28:15;;;;;;;10.60;5.07;;;;;;;19.58;85.00;95246.38;1032263;28;20192;-78
2021/06/18 02:28:45;;;;;;;7.72;4.72;;;;;;;19.64;85.07;95256.13;1040536;28;20021;-78
2021/06/18 02:29:16;;;;;;;12.25;5.65;;;;;;;19.63;85.00;95249.13;1040539;28;20594;-78
2021/06/18 02:29:47;;;;;;;10.60;5.43;;;;;;;19.57;84.82;95244.72;1032471;28;20034;-79
2021/06/18 02:30:17;;;;;;;10.23;5.05;;;;;;;19.61;84.97;95262.03;1036229;28;20040;-78
2021/06/18 02:30:48;;;;;;;10.85;5.35;;;;;;;19.48;85.01;95238.97;1036406;28;20017;-79
2021/06/18 02:31:20;;;;;;;8.07;5.05;;;;;;;19.47;84.98;95241.91;1032349;28;20098;-78
2021/06/18 02:31:51;;;;;;;10.50;5.75;;;;;;;19.59;84.97;95259.59;1036268;28;20092;-78